Time;durP1;ratioP1;P1;durP2;ratioP2;P2;SDS_P1;SDS_P2;PMS_P1;PMS_P2;Temp;Humidity;BMP_temperature;BMP_pressure;BME280_temperature;BME280_humidity;BME280_pressure;Samples;Min_cycle;Max_cycle;Signal;HPM_P1;HPM_P2
2023/01/27 09:03:44;;;;;;;7.87;3.73;;;5.30;99.90;;;;;;4894318;29;20736;-71
2023/01/27 09:06:13;;;;;;;8.43;3.53;;;5.20;99.90;;;;;;4897713;29;20241;-70
2023/01/27 09:08:41;;;;;;;5.30;2.70;;;5.10;99.90;;;;;;4897370;29;20701;-70
2023/01/27 09:11:09;;;;;;;5.60;2.77;;;5.10;99.90;;;;;;4894078;29;20292;-70
2023/01/27 09:13:36;;;;;;;10.80;3.43;;;5.30;99.90;;;;;;4897224;29;20309;-70
2023/01/27 09:16:03;;;;;;;9.30;3.20;;;5.20;99.90;;;;;;4897382;29;20309;-70
2023/01/27 09:18:30;;;;;;;9.27;3.27;;;5.30;99.90;;;;;;4898031;29;20233;-72
2023/01/27 09:20:58;;;;;;;5.13;2.63;;;5.50;99.90;;;;;;4898736;29;20218;-72
2023/01/27 09:23:24;;;;;;;5.83;2.97;;;5.60;99.90;;;;;;4898226;29;20214;-71
2023/01/27 09:25:51;;;;;;;9.70;3.50;;;5.70;99.90;;;;;;4898270;29;20210;-71
2023/01/27 09:28:18;;;;;;;6.30;2.90;;;5.60;99.90;;;;;;4898373;29;20206;-71
2023/01/27 09:30:45;;;;;;;5.43;2.30;;;5.60;99.90;;;;;;4898136;29;20211;-72
2023/01/27 09:33:12;;;;;;;8.90;2.90;;;5.40;99.90;;;;;;4898512;29;20207;-71
2023/01/27 09:35:44;;;;;;;5.13;2.67;;;5.60;99.90;;;;;;4898316;29;20214;-72
2023/01/27 09:38:17;;;;;;;6.60;3.13;;;5.50;99.90;;;;;;4898400;29;20218;-72
2023/01/27 09:41:03;;;;;;;6.90;3.10;;;5.60;99.90;;;;;;4898276;29;20305;-73
2023/01/27 09:44:08;;;;;;;6.20;3.00;;;5.60;99.90;;;;;;4898194;29;20696;-72
2023/01/27 09:46:48;;;;;;;7.33;2.80;;;5.60;99.90;;;;;;4896677;29;20337;-74
2023/01/27 09:49:52;;;;;;;4.53;2.47;;;5.80;99.90;;;;;;4899416;29;20226;-73
2023/01/27 09:52:40;;;;;;;6.93;3.17;;;5.70;99.90;;;;;;4879489;29;20269;-72
2023/01/27 09:55:15;;;;;;;6.00;2.73;;;5.90;99.90;;;;;;4898034;29;20221;-72
2023/01/27 09:57:48;;;;;;;5.90;3.10;;;6.00;99.90;;;;;;4898090;29;20214;-73
2023/01/27 10:00:44;;;;;;;5.97;3.03;;;5.80;99.90;;;;;;4898209;29;20234;-72
2023/01/27 10:03:30;;;;;;;8.80;3.00;;;5.90;99.90;;;;;;4897383;29;20221;-73
2023/01/27 10:06:19;;;;;;;5.97;3.13;;;5.80;99.90;;;;;;4897053;29;20217;-72
2023/01/27 10:09:10;;;;;;;5.93;2.97;;;5.80;99.90;;;;;;4891215;29;20662;-72
2023/01/27 10:11:43;;;;;;;5.47;2.60;;;5.60;99.90;;;;;;4897851;29;20214;-72
2023/01/27 10:14:23;;;;;;;7.20;2.70;;;5.70;99.90;;;;;;4898040;29;20221;-72
2023/01/27 10:17:02;;;;;;;7.90;2.93;;;5.50;99.90;;;;;;4897756;29;20221;-71
2023/01/27 10:19:43;;;;;;;6.30;2.63;;;5.20;99.90;;;;;;4897763;29;20238;-72
2023/01/27 10:22:19;;;;;;;6.30;2.73;;;5.40;99.90;;;;;;4897948;29;20210;-71
2023/01/27 10:25:00;;;;;;;5.67;2.57;;;5.70;99.90;;;;;;4897803;29;20210;-72
2023/01/27 10:27:35;;;;;;;4.30;2.13;;;5.90;99.90;;;;;;4897976;29;20234;-73
2023/01/27 10:30:07;;;;;;;6.73;2.90;;;6.00;99.90;;;;;;4897831;29;20252;-72
2023/01/27 10:32:43;;;;;;;6.40;2.70;;;6.10;99.90;;;;;;4897946;29;20210;-72
2023/01/27 10:35:16;;;;;;;5.60;2.47;;;6.00;99.90;;;;;;4897555;29;20216;-73
2023/01/27 10:37:53;;;;;;;3.30;2.10;;;6.10;99.90;;;;;;4897903;29;20210;-72
2023/01/27 10:40:30;;;;;;;5.00;2.53;;;6.20;99.90;;;;;;4897451;29;20234;-73
2023/01/27 10:43:06;;;;;;;3.60;2.47;;;6.00;99.90;;;;;;4897622;29;20218;-72
2023/01/27 10:45:38;;;;;;;4.93;2.10;;;6.00;99.90;;;;;;4897547;29;20220;-72
2023/01/27 10:48:32;;;;;;;4.43;2.40;;;6.20;99.90;;;;;;4897732;29;20713;-73
2023/01/27 10:51:05;;;;;;;4.50;2.43;;;6.40;99.90;;;;;;4892206;29;20713;-73
2023/01/27 10:53:38;;;;;;;5.30;2.50;;;6.30;99.90;;;;;;4901076;29;20623;-72
2023/01/27 10:56:09;;;;;;;3.60;2.27;;;6.50;99.90;;;;;;4899584;29;20218;-71
2023/01/27 10:58:46;;;;;;;5.30;2.20;;;6.60;99.90;;;;;;4899406;29;20237;-73
2023/01/27 11:01:16;;;;;;;4.13;2.03;;;6.60;99.90;;;;;;4900290;29;20206;-73
2023/01/27 11:03:47;;;;;;;4.80;2.30;;;6.60;99.90;;;;;;4901505;29;20206;-72
2023/01/27 11:06:17;;;;;;;3.73;1.77;;;6.70;99.90;;;;;;4901522;29;20214;-72
2023/01/27 11:08:47;;;;;;;4.87;2.20;;;6.50;99.90;;;;;;4901152;29;20241;-72
2023/01/27 11:14:09;;;;;;;4.53;2.10;;;6.70;99.90;;;;;;4901512;29;20265;-72
2023/01/27 11:16:39;;;;;;;3.40;2.03;;;6.80;99.90;;;;;;4901194;29;20206;-72
2023/01/27 11:19:16;;;;;;;5.37;1.87;;;6.80;99.90;;;;;;4900604;29;20238;-72
2023/01/27 11:21:43;;;;;;;3.13;2.10;;;6.60;99.90;;;;;;4901071;29;20214;-72
2023/01/27 11:24:21;;;;;;;2.97;1.73;;;6.50;99.90;;;;;;4900832;29;20214;-72
2023/01/27 11:26:56;;;;;;;3.67;2.03;;;6.30;99.90;;;;;;4900665;29;20230;-73
2023/01/27 11:29:35;;;;;;;3.20;2.10;;;6.20;99.90;;;;;;4901321;29;20230;-72
2023/01/27 11:32:09;;;;;;;4.67;1.63;;;6.30;99.90;;;;;;4901461;29;20206;-73
2023/01/27 11:34:44;;;;;;;2.23;1.63;;;6.40;99.90;;;;;;4900787;29;20210;-72
2023/01/27 11:37:18;;;;;;;3.50;1.90;;;6.40;99.90;;;;;;4900221;29;20308;-72
2023/01/27 11:39:45;;;;;;;3.57;1.83;;;6.50;99.90;;;;;;4901130;29;20234;-72
2023/01/27 11:42:12;;;;;;;2.10;1.27;;;6.50;99.90;;;;;;4901516;29;20238;-73
2023/01/27 11:44:43;;;;;;;6.10;2.30;;;6.60;99.90;;;;;;4901588;29;20298;-73
2023/01/27 11:47:25;;;;;;;3.83;1.90;;;6.60;99.90;;;;;;4900825;29;20321;-73
2023/01/27 11:49:54;;;;;;;2.77;1.77;;;6.50;99.90;;;;;;4900482;29;20237;-72
2023/01/27 11:52:25;;;;;;;2.90;1.73;;;6.60;99.90;;;;;;4900163;29;20218;-73
2023/01/27 11:54:56;;;;;;;2.87;1.73;;;6.70;99.90;;;;;;4900214;29;20669;-73
2023/01/27 11:57:26;;;;;;;2.87;1.73;;;6.70;99.90;;;;;;4900010;29;20696;-73
2023/01/27 11:59:59;;;;;;;2.83;1.40;;;6.40;99.90;;;;;;4899850;29;20743;-73
2023/01/27 12:02:34;;;;;;;2.50;1.67;;;6.20;99.90;;;;;;4899865;29;20218;-72
2023/01/27 12:05:06;;;;;;;2.83;1.80;;;6.30;99.90;;;;;;4899826;29;20214;-72
2023/01/27 12:07:45;;;;;;;2.57;1.57;;;6.40;99.90;;;;;;4899668;29;20597;-73
2023/01/27 12:10:25;;;;;;;2.60;1.60;;;6.30;99.90;;;;;;4899689;29;20226;-73
2023/01/27 12:12:52;;;;;;;3.17;1.83;;;6.20;99.90;;;;;;4898940;29;20313;-73
2023/01/27 12:15:21;;;;;;;2.67;1.50;;;6.20;99.90;;;;;;4899880;29;20562;-73
2023/01/27 12:17:50;;;;;;;3.17;1.53;;;6.30;99.90;;;;;;4899878;29;20206;-72
2023/01/27 12:20:30;;;;;;;3.23;1.77;;;6.20;99.90;;;;;;4899832;29;20234;-74
2023/01/27 12:23:00;;;;;;;2.83;1.77;;;6.20;99.90;;;;;;4899485;29;20670;-72
2023/01/27 12:25:29;;;;;;;4.80;2.10;;;6.10;99.90;;;;;;4899601;29;20215;-72
2023/01/27 12:27:59;;;;;;;2.50;1.57;;;6.20;99.90;;;;;;4899884;29;20238;-73
2023/01/27 12:30:30;;;;;;;2.87;1.40;;;6.40;99.90;;;;;;4899558;29;20234;-73
2023/01/27 12:32:58;;;;;;;3.07;1.80;;;6.40;99.90;;;;;;4899441;29;20217;-71
2023/01/27 12:35:30;;;;;;;2.53;1.53;;;6.40;99.90;;;;;;4899470;29;20211;-72
2023/01/27 12:38:01;;;;;;;2.33;1.50;;;6.40;99.90;;;;;;4899329;29;20225;-72
2023/01/27 12:40:29;;;;;;;4.30;2.40;;;6.30;99.90;;;;;;4899597;29;20582;-72
2023/01/27 12:43:11;;;;;;;2.37;1.57;;;6.30;99.90;;;;;;4899360;29;20213;-73
2023/01/27 12:45:42;;;;;;;4.87;1.90;;;6.10;99.90;;;;;;4899322;29;20266;-73
2023/01/27 12:48:20;;;;;;;2.87;1.57;;;5.90;99.90;;;;;;4898757;29;20361;-73
2023/01/27 12:51:05;;;;;;;2.53;1.90;;;5.90;99.90;;;;;;4898772;29;20569;-73
2023/01/27 12:53:32;;;;;;;2.30;1.60;;;6.20;99.90;;;;;;4899237;29;20297;-72
2023/01/27 12:56:03;;;;;;;3.13;1.80;;;6.20;99.90;;;;;;4898898;29;20217;-71
2023/01/27 12:58:39;;;;;;;2.97;1.60;;;6.10;99.90;;;;;;4899033;29;20234;-72
2023/01/27 13:01:23;;;;;;;2.70;1.50;;;5.90;99.90;;;;;;4898668;29;20209;-72
2023/01/27 13:03:53;;;;;;;4.07;1.73;;;5.90;99.90;;;;;;4898859;29;20211;-71
2023/01/27 13:06:29;;;;;;;2.10;1.40;;;6.00;99.90;;;;;;4898694;29;20207;-73
2023/01/27 13:08:58;;;;;;;3.40;1.47;;;6.20;99.90;;;;;;4897667;29;20245;-73
2023/01/27 13:11:33;;;;;;;3.10;1.33;;;6.10;99.90;;;;;;4898336;29;20558;-73
2023/01/27 13:14:00;;;;;;;2.83;1.70;;;6.00;99.90;;;;;;4897966;29;20218;-73
2023/01/27 13:16:29;;;;;;;6.33;1.73;;;6.10;99.90;;;;;;4898185;29;20573;-73
2023/01/27 13:18:58;;;;;;;2.83;1.60;;;6.10;99.90;;;;;;4898446;29;20261;-71
2023/01/27 13:21:29;;;;;;;2.77;1.67;;;6.20;99.90;;;;;;4898319;29;20215;-71
2023/01/27 13:23:57;;;;;;;2.80;1.67;;;6.20;99.90;;;;;;4897980;29;20214;-71
2023/01/27 13:26:28;;;;;;;2.83;1.80;;;6.30;99.90;;;;;;4898077;29;20206;-72
2023/01/27 13:29:00;;;;;;;2.63;1.60;;;6.30;99.90;;;;;;4898408;29;20242;-72
2023/01/27 13:31:40;;;;;;;4.30;1.73;;;6.20;99.90;;;;;;4898351;29;20214;-70
2023/01/27 13:34:18;;;;;;;3.20;1.50;;;6.30;99.90;;;;;;4896833;29;20210;-72
2023/01/27 13:36:51;;;;;;;2.60;1.50;;;6.20;99.90;;;;;;4898572;29;20210;-71
2023/01/27 13:39:27;;;;;;;3.07;1.47;;;6.00;99.90;;;;;;4898462;29;20230;-71
2023/01/27 13:42:01;;;;;;;2.13;1.60;;;5.90;99.90;;;;;;4898185;29;20217;-71
2023/01/27 13:44:35;;;;;;;3.50;1.67;;;6.00;99.90;;;;;;4897966;29;20210;-71
2023/01/27 13:47:13;;;;;;;3.80;1.70;;;6.10;99.90;;;;;;4897837;29;20214;-71
2023/01/27 13:49:45;;;;;;;2.87;1.83;;;5.90;99.90;;;;;;4897374;29;20230;-72
2023/01/27 13:52:12;;;;;;;6.83;1.60;;;6.00;99.90;;;;;;4896398;29;20221;-71
2023/01/27 13:54:39;;;;;;;3.10;1.80;;;6.00;99.90;;;;;;4896717;29;20214;-72
2023/01/27 13:57:20;;;;;;;2.77;1.50;;;6.30;99.90;;;;;;4897745;29;20232;-72
2023/01/27 14:00:00;;;;;;;2.73;1.80;;;6.50;99.90;;;;;;4898157;29;20231;-71
2023/01/27 14:02:46;;;;;;;2.13;1.53;;;6.50;99.90;;;;;;4897547;29;20218;-72
2023/01/27 14:05:33;;;;;;;2.40;1.60;;;6.40;99.90;;;;;;4897225;29;20216;-71
2023/01/27 14:08:12;;;;;;;2.80;1.50;;;6.40;99.90;;;;;;4897248;29;20238;-71
2023/01/27 14:10:43;;;;;;;2.50;1.70;;;6.30;99.90;;;;;;4896822;29;20692;-71
2023/01/27 14:13:25;;;;;;;6.87;1.50;;;6.00;99.90;;;;;;4897491;29;20211;-71
2023/01/27 14:16:01;;;;;;;2.23;1.53;;;5.90;99.90;;;;;;4897522;29;20207;-71
2023/01/27 14:18:34;;;;;;;2.30;1.37;;;6.00;99.90;;;;;;4897110;29;20729;-71
2023/01/27 14:21:15;;;;;;;2.37;1.60;;;6.00;99.90;;;;;;4897207;29;20230;-71
2023/01/27 14:23:53;;;;;;;2.07;1.40;;;6.00;99.90;;;;;;4897465;29;20220;-71
2023/01/27 14:26:40;;;;;;;3.13;1.70;;;6.10;99.90;;;;;;4897775;29;20309;-71
2023/01/27 14:29:20;;;;;;;4.53;2.13;;;6.20;99.90;;;;;;4897101;29;20246;-70
2023/01/27 14:31:56;;;;;;;2.90;1.70;;;6.20;99.90;;;;;;4897321;29;20237;-71
2023/01/27 14:34:55;;;;;;;2.30;1.40;;;6.00;99.90;;;;;;4897320;29;20206;-71
2023/01/27 14:37:30;;;;;;;2.50;1.90;;;5.90;99.90;;;;;;4901062;29;20687;-72
2023/01/27 14:40:15;;;;;;;2.03;1.40;;;6.00;99.90;;;;;;4900822;29;20708;-71
2023/01/27 14:42:50;;;;;;;2.30;1.50;;;6.10;99.90;;;;;;4901553;29;20221;-72
2023/01/27 14:45:21;;;;;;;3.33;1.53;;;6.20;99.90;;;;;;4899959;29;20219;-73
2023/01/27 14:47:56;;;;;;;2.00;1.27;;;6.20;99.90;;;;;;4901131;29;20593;-74
2023/01/27 14:50:31;;;;;;;2.10;1.33;;;6.00;99.90;;;;;;4901250;29;20296;-73
2023/01/27 14:53:09;;;;;;;2.37;1.53;;;6.00;99.90;;;;;;4901206;29;20669;-73
2023/01/27 14:55:44;;;;;;;4.03;1.70;;;5.90;99.90;;;;;;4901189;29;20306;-73
2023/01/27 14:58:38;;;;;;;3.47;1.60;;;5.90;99.90;;;;;;4901582;29;20217;-73
2023/01/27 15:01:20;;;;;;;2.30;1.40;;;6.00;99.90;;;;;;4900925;29;20210;-73
2023/01/27 15:04:17;;;;;;;2.60;1.60;;;6.00;99.90;;;;;;4900951;29;20217;-74
2023/01/27 15:06:47;;;;;;;3.03;1.77;;;6.00;99.90;;;;;;4901167;29;20213;-74
2023/01/27 15:09:26;;;;;;;3.47;1.70;;;5.90;99.90;;;;;;4900883;29;20242;-73
2023/01/27 15:12:15;;;;;;;2.87;1.73;;;6.00;99.90;;;;;;4900962;29;20225;-73
2023/01/27 15:15:06;;;;;;;2.13;1.50;;;5.90;99.90;;;;;;4901119;29;20210;-74
2023/01/27 15:17:46;;;;;;;2.37;1.40;;;5.80;99.90;;;;;;4898830;29;20210;-74
2023/01/27 15:20:35;;;;;;;2.53;1.67;;;5.80;99.90;;;;;;4900480;29;20233;-74
2023/01/27 15:23:23;;;;;;;2.83;1.40;;;5.70;99.90;;;;;;4900872;29;20221;-74
2023/01/27 15:25:52;;;;;;;5.27;1.77;;;5.80;99.90;;;;;;4900737;29;20221;-74
2023/01/27 15:28:23;;;;;;;2.90;1.50;;;5.90;99.90;;;;;;4900257;29;20238;-73
2023/01/27 15:31:22;;;;;;;3.17;1.97;;;6.00;99.90;;;;;;4900355;29;20211;-73
2023/01/27 15:33:52;;;;;;;4.10;1.77;;;6.10;99.90;;;;;;4878601;29;20580;-73
2023/01/27 15:36:30;;;;;;;4.60;2.03;;;6.10;99.90;;;;;;4882911;29;20214;-73
2023/01/27 15:39:20;;;;;;;2.90;1.83;;;6.00;99.90;;;;;;4896893;29;20230;-72
2023/01/27 15:42:10;;;;;;;4.73;1.93;;;6.00;99.90;;;;;;4895244;29;20753;-72
2023/01/27 15:44:40;;;;;;;3.67;1.73;;;6.00;99.90;;;;;;4893572;29;20220;-71
2023/01/27 15:47:11;;;;;;;3.17;1.73;;;6.00;99.90;;;;;;4890695;29;20207;-72
2023/01/27 15:49:42;;;;;;;3.83;2.23;;;6.10;99.90;;;;;;4890786;29;20269;-72
2023/01/27 15:52:19;;;;;;;3.87;1.80;;;6.20;99.90;;;;;;4887381;29;20208;-72
2023/01/27 15:54:50;;;;;;;5.00;2.10;;;6.20;99.90;;;;;;4898007;29;20202;-71
2023/01/27 15:57:27;;;;;;;3.03;1.90;;;6.10;99.90;;;;;;4887094;29;20215;-70
2023/01/27 15:59:58;;;;;;;5.73;2.00;;;6.10;99.90;;;;;;4895792;29;20241;-70
2023/01/27 16:02:27;;;;;;;5.17;2.17;;;6.00;99.90;;;;;;4894816;29;20585;-71
2023/01/27 16:04:55;;;;;;;3.77;2.20;;;6.00;99.90;;;;;;4893266;29;20211;-72
2023/01/27 16:07:27;;;;;;;3.50;2.20;;;5.90;99.90;;;;;;4884007;29;20217;-71
2023/01/27 16:09:56;;;;;;;3.97;2.27;;;5.90;99.90;;;;;;4891702;29;20710;-72
2023/01/27 16:12:37;;;;;;;5.23;2.30;;;5.90;99.90;;;;;;4898753;29;20215;-71
2023/01/27 16:15:21;;;;;;;5.40;2.30;;;6.00;99.90;;;;;;4892232;29;20214;-71
2023/01/27 16:18:00;;;;;;;3.13;1.80;;;5.90;99.90;;;;;;4896580;29;20203;-72
2023/01/27 16:20:30;;;;;;;3.47;2.10;;;5.80;99.90;;;;;;4899026;29;20713;-71
2023/01/27 16:23:01;;;;;;;5.57;2.20;;;5.80;99.90;;;;;;4899185;29;20214;-71
2023/01/27 16:25:38;;;;;;;3.63;2.10;;;5.80;99.90;;;;;;4899630;29;20215;-72
2023/01/27 16:28:13;;;;;;;3.80;1.80;;;5.80;99.90;;;;;;4899192;29;20266;-72
2023/01/27 16:30:47;;;;;;;3.80;2.20;;;5.90;99.90;;;;;;4898653;29;20220;-72
2023/01/27 16:33:19;;;;;;;4.30;2.10;;;5.80;99.90;;;;;;4898552;29;20210;-72
2023/01/27 16:35:51;;;;;;;3.93;2.23;;;5.80;99.90;;;;;;4897870;29;20270;-71
2023/01/27 16:38:25;;;;;;;3.90;2.10;;;5.70;99.90;;;;;;4898858;29;20246;-70
2023/01/27 16:40:56;;;;;;;3.60;2.17;;;5.70;99.90;;;;;;4898688;29;20217;-72
2023/01/27 16:43:28;;;;;;;4.30;2.33;;;5.70;99.90;;;;;;4898523;29;20217;-71
2023/01/27 16:45:56;;;;;;;3.10;2.17;;;5.70;99.90;;;;;;4898979;29;20242;-70
2023/01/27 16:48:29;;;;;;;4.27;2.03;;;5.70;99.90;;;;;;4898106;29;20237;-72
2023/01/27 16:51:08;;;;;;;3.10;1.77;;;5.50;99.90;;;;;;4898796;29;20203;-72
2023/01/27 16:53:35;;;;;;;3.40;2.20;;;5.70;99.90;;;;;;4898085;29;20222;-72
2023/01/27 16:56:05;;;;;;;3.47;1.90;;;5.70;99.90;;;;;;4889103;29;20215;-72
2023/01/27 16:58:33;;;;;;;3.83;2.10;;;5.80;99.90;;;;;;4896764;29;20226;-72
2023/01/27 17:01:01;;;;;;;4.10;2.13;;;5.70;99.90;;;;;;4898631;29;20211;-72
2023/01/27 17:03:36;;;;;;;3.10;2.10;;;5.70;99.90;;;;;;4898322;29;20570;-72
2023/01/27 17:06:07;;;;;;;3.60;2.13;;;5.80;99.90;;;;;;4898666;29;20266;-72
2023/01/27 17:08:35;;;;;;;4.30;2.03;;;5.80;99.90;;;;;;4898464;29;20248;-71
2023/01/27 17:11:16;;;;;;;2.73;1.97;;;5.80;99.90;;;;;;4898014;29;20210;-72
2023/01/27 17:13:45;;;;;;;7.17;2.53;;;5.90;99.90;;;;;;4898385;29;20206;-71
2023/01/27 17:16:19;;;;;;;5.27;2.47;;;5.80;99.90;;;;;;4898501;29;20210;-72
2023/01/27 17:18:47;;;;;;;4.33;2.30;;;5.80;99.90;;;;;;4886040;29;20241;-71
2023/01/27 17:21:24;;;;;;;4.73;2.10;;;5.70;99.90;;;;;;4886333;29;20221;-71
2023/01/27 17:23:51;;;;;;;4.63;2.30;;;5.70;99.90;;;;;;4898169;29;20214;-72
2023/01/27 17:26:20;;;;;;;4.80;2.20;;;5.40;99.90;;;;;;4898391;29;20210;-72
2023/01/27 17:28:47;;;;;;;6.80;2.43;;;5.40;99.90;;;;;;4897458;29;20593;-72
2023/01/27 17:31:19;;;;;;;4.13;2.37;;;5.50;99.90;;;;;;4897866;29;20210;-72
2023/01/27 17:33:49;;;;;;;5.27;2.73;;;5.70;99.90;;;;;;4897967;29;20214;-71
2023/01/27 17:36:16;;;;;;;4.37;2.40;;;5.90;99.90;;;;;;4898573;29;20207;-71
2023/01/27 17:38:46;;;;;;;6.20;2.53;;;5.90;99.90;;;;;;4897470;29;20721;-71
2023/01/27 17:41:41;;;;;;;4.40;2.47;;;5.90;99.90;;;;;;4897868;29;20218;-71
2023/01/27 17:44:13;;;;;;;4.10;2.47;;;5.90;99.90;;;;;;4865073;29;20203;-71
2023/01/27 17:46:41;;;;;;;4.57;2.40;;;6.00;99.90;;;;;;4890984;29;20214;-72
2023/01/27 17:49:14;;;;;;;6.03;3.30;;;5.90;99.90;;;;;;4894543;29;20242;-72
2023/01/27 17:51:44;;;;;;;4.67;2.40;;;5.70;99.90;;;;;;4892193;29;20212;-71
2023/01/27 17:54:21;;;;;;;5.27;2.73;;;5.70;99.90;;;;;;4885172;29;20746;-71
2023/01/27 17:56:51;;;;;;;3.97;2.53;;;5.70;99.90;;;;;;4892391;29;20206;-71
2023/01/27 17:59:21;;;;;;;4.77;2.57;;;5.70;99.90;;;;;;4887795;29;20286;-71
2023/01/27 18:01:51;;;;;;;4.77;2.43;;;5.80;99.90;;;;;;4897226;29;20287;-71
2023/01/27 18:04:18;;;;;;;3.80;2.50;;;5.70;99.90;;;;;;4896496;29;20224;-72
2023/01/27 18:06:46;;;;;;;8.80;3.13;;;5.80;99.90;;;;;;4896963;29;20218;-71
2023/01/27 18:09:19;;;;;;;7.10;2.67;;;5.60;99.90;;;;;;4897098;29;20597;-71
2023/01/27 18:11:58;;;;;;;5.53;2.40;;;5.70;99.90;;;;;;4897799;29;20220;-72
2023/01/27 18:14:25;;;;;;;4.27;2.50;;;5.70;99.90;;;;;;4898109;29;20380;-72
2023/01/27 18:17:04;;;;;;;7.20;3.00;;;5.80;99.90;;;;;;4897945;29;20210;-71
2023/01/27 18:19:31;;;;;;;4.07;2.63;;;5.80;99.90;;;;;;4897490;29;20237;-72
2023/01/27 18:22:12;;;;;;;7.17;3.40;;;5.80;99.90;;;;;;4897790;29;20210;-71
2023/01/27 18:24:46;;;;;;;7.13;3.10;;;5.90;99.90;;;;;;4897934;29;20687;-71
2023/01/27 18:27:22;;;;;;;4.20;2.03;;;6.00;99.90;;;;;;4897991;29;20216;-71
2023/01/27 18:29:51;;;;;;;5.40;2.30;;;5.90;99.90;;;;;;4897772;29;20245;-72
2023/01/27 18:32:21;;;;;;;6.37;2.60;;;5.70;99.90;;;;;;4897836;29;20206;-72
2023/01/27 18:34:50;;;;;;;6.10;3.30;;;5.70;99.90;;;;;;4897906;29;20593;-71
2023/01/27 18:37:26;;;;;;;6.13;3.13;;;5.70;99.90;;;;;;4898031;29;20213;-71
2023/01/27 18:39:53;;;;;;;10.20;4.83;;;5.70;99.90;;;;;;4897301;29;20286;-71
2023/01/27 18:42:24;;;;;;;6.13;3.30;;;5.70;99.90;;;;;;4897718;29;20207;-71
2023/01/27 18:44:51;;;;;;;4.73;2.67;;;5.70;99.90;;;;;;4897507;29;20211;-71
2023/01/27 18:47:33;;;;;;;4.67;2.77;;;5.70;99.90;;;;;;4897824;29;20210;-72
2023/01/27 18:50:15;;;;;;;7.70;3.33;;;5.60;99.90;;;;;;4895837;29;20272;-72
2023/01/27 18:52:43;;;;;;;7.07;3.77;;;5.70;99.90;;;;;;4897619;29;20210;-72
2023/01/27 18:55:18;;;;;;;7.33;3.40;;;5.90;99.90;;;;;;4897435;29;20697;-72
2023/01/27 18:57:48;;;;;;;7.37;2.70;;;6.10;99.90;;;;;;4897726;29;20221;-72
2023/01/27 19:00:18;;;;;;;6.47;3.03;;;6.10;99.90;;;;;;4897696;29;20230;-72
2023/01/27 19:02:47;;;;;;;6.73;3.03;;;6.10;99.90;;;;;;4897596;29;20225;-72
2023/01/27 19:05:22;;;;;;;6.67;3.47;;;6.10;99.90;;;;;;4897659;29;20215;-72
2023/01/27 19:07:49;;;;;;;6.50;3.47;;;6.00;99.90;;;;;;4897398;29;20228;-72
2023/01/27 19:10:18;;;;;;;6.43;3.10;;;6.10;99.90;;;;;;4897468;29;20242;-72
2023/01/27 19:12:46;;;;;;;9.47;3.50;;;6.10;99.90;;;;;;4897419;29;20247;-72
2023/01/27 19:15:13;;;;;;;6.47;3.30;;;6.20;99.90;;;;;;4897497;29;20210;-72
2023/01/27 19:17:41;;;;;;;7.60;3.87;;;6.20;99.90;;;;;;4897311;29;20206;-73
2023/01/27 19:20:16;;;;;;;5.17;2.77;;;6.20;99.90;;;;;;4897157;29;20237;-72
2023/01/27 19:22:43;;;;;;;7.33;3.67;;;6.10;99.90;;;;;;4900339;29;20210;-73
2023/01/27 19:25:10;;;;;;;6.70;3.20;;;6.10;99.90;;;;;;4900556;29;20214;-72
2023/01/27 19:27:39;;;;;;;9.20;3.60;;;6.10;99.90;;;;;;4900914;29;20581;-72
2023/01/27 19:30:23;;;;;;;7.07;3.77;;;6.10;99.90;;;;;;4900841;29;20297;-72
2023/01/27 19:32:49;;;;;;;6.93;3.13;;;6.00;99.90;;;;;;4900659;29;20210;-72
2023/01/27 19:35:16;;;;;;;6.60;3.10;;;5.80;99.90;;;;;;4900591;29;20221;-74
2023/01/27 19:37:43;;;;;;;7.63;3.07;;;5.50;99.90;;;;;;4900675;29;20236;-72
2023/01/27 19:40:16;;;;;;;7.33;4.00;;;5.40;99.90;;;;;;4900136;29;20238;-72
2023/01/27 19:42:43;;;;;;;7.70;3.67;;;5.50;99.90;;;;;;4900213;29;20217;-73
2023/01/27 19:45:12;;;;;;;5.90;3.33;;;5.50;99.90;;;;;;4900090;29;20214;-72
2023/01/27 19:47:42;;;;;;;6.43;3.43;;;5.60;99.90;;;;;;4900221;29;20215;-73
2023/01/27 19:50:16;;;;;;;11.60;3.70;;;5.60;99.90;;;;;;4900052;29;20686;-72
2023/01/27 19:52:43;;;;;;;5.70;3.77;;;5.50;99.90;;;;;;4900330;29;20202;-73
2023/01/27 19:55:10;;;;;;;8.27;4.90;;;5.60;99.90;;;;;;4900198;29;20207;-72
2023/01/27 19:57:37;;;;;;;7.57;3.53;;;5.60;99.90;;;;;;4898017;29;20658;-72
2023/01/27 20:00:05;;;;;;;6.93;3.43;;;5.70;99.90;;;;;;4890977;29;20241;-72
2023/01/27 20:02:32;;;;;;;6.67;3.93;;;5.70;99.90;;;;;;4882754;29;20686;-72
2023/01/27 20:05:00;;;;;;;7.67;4.00;;;5.80;99.90;;;;;;4888628;29;20223;-71
2023/01/27 20:07:27;;;;;;;7.53;4.33;;;5.80;99.90;;;;;;4892764;29;20304;-72
2023/01/27 20:09:53;;;;;;;5.43;3.13;;;5.70;99.90;;;;;;4892385;29;20593;-72
2023/01/27 20:12:20;;;;;;;7.77;3.80;;;5.70;99.90;;;;;;4885298;29;20286;-72
2023/01/27 20:14:47;;;;;;;6.77;3.30;;;5.60;99.90;;;;;;4898985;29;20218;-72
2023/01/27 20:17:14;;;;;;;7.07;3.73;;;5.60;99.90;;;;;;4892400;29;20213;-71
2023/01/27 20:19:41;;;;;;;6.03;3.10;;;5.60;99.90;;;;;;4893621;29;20324;-72
2023/01/27 20:22:11;;;;;;;7.20;3.73;;;5.60;99.90;;;;;;4889501;29;20251;-71
2023/01/27 20:24:38;;;;;;;6.80;3.50;;;5.60;99.90;;;;;;4894833;29;20693;-71
2023/01/27 20:27:05;;;;;;;6.10;3.50;;;5.60;99.90;;;;;;4887945;29;20214;-72
2023/01/27 20:29:34;;;;;;;6.70;3.50;;;5.60;99.90;;;;;;4898714;29;20234;-71
2023/01/27 20:32:01;;;;;;;6.10;3.23;;;5.70;99.90;;;;;;4898522;29;20213;-71
2023/01/27 20:34:27;;;;;;;7.07;3.70;;;5.70;99.90;;;;;;4898382;29;20218;-71
2023/01/27 20:36:54;;;;;;;9.10;3.90;;;5.80;99.90;;;;;;4898995;29;20210;-72
2023/01/27 20:39:22;;;;;;;7.00;3.63;;;5.90;99.90;;;;;;4899233;29;20226;-72
2023/01/27 20:41:50;;;;;;;7.30;3.90;;;5.70;99.90;;;;;;4898986;29;20757;-72
2023/01/27 20:44:17;;;;;;;7.97;3.70;;;5.70;99.90;;;;;;4898449;29;20213;-72
2023/01/27 20:46:43;;;;;;;6.43;3.10;;;5.60;99.90;;;;;;4898891;29;20216;-71
2023/01/27 20:49:10;;;;;;;6.80;3.40;;;5.70;99.90;;;;;;4898630;29;20230;-71
2023/01/27 20:51:37;;;;;;;6.40;3.13;;;5.80;99.90;;;;;;4898452;29;20601;-72
2023/01/27 20:54:04;;;;;;;6.63;3.47;;;5.80;99.90;;;;;;4898174;29;20670;-71
2023/01/27 20:56:32;;;;;;;5.83;3.37;;;5.60;99.90;;;;;;4898294;29;20662;-72
2023/01/27 20:59:00;;;;;;;6.67;3.33;;;5.70;99.90;;;;;;4898938;29;20230;-73
2023/01/27 21:01:27;;;;;;;4.17;2.67;;;5.60;99.90;;;;;;4898361;29;20630;-73
2023/01/27 21:06:48;;;;;;;8.43;3.20;;;5.70;99.90;;;;;;4891430;29;20210;-72
2023/01/27 21:09:15;;;;;;;6.13;2.80;;;5.80;99.90;;;;;;4898239;29;20252;-72
2023/01/27 21:11:43;;;;;;;4.60;2.57;;;5.60;99.90;;;;;;4897509;29;20234;-71
2023/01/27 21:14:11;;;;;;;4.90;3.03;;;5.60;99.90;;;;;;4898029;29;20750;-71
2023/01/27 21:16:37;;;;;;;4.57;2.63;;;5.60;99.90;;;;;;4898426;29;20308;-71
2023/01/27 21:19:04;;;;;;;6.33;2.70;;;5.50;99.90;;;;;;4897936;29;20233;-72
2023/01/27 21:21:31;;;;;;;5.00;2.43;;;5.40;99.90;;;;;;4898494;29;20222;-72
2023/01/27 21:23:59;;;;;;;5.23;3.03;;;5.30;99.90;;;;;;4898013;29;20207;-71
2023/01/27 21:26:26;;;;;;;3.43;2.23;;;5.50;99.90;;;;;;4898053;29;20270;-71
2023/01/27 21:28:55;;;;;;;3.60;2.20;;;5.50;99.90;;;;;;4897785;29;20638;-71
2023/01/27 21:31:22;;;;;;;3.40;2.27;;;5.20;99.90;;;;;;4893712;29;20234;-71
2023/01/27 21:33:50;;;;;;;3.57;2.40;;;5.20;99.90;;;;;;4895739;29;20290;-72
2023/01/27 21:36:17;;;;;;;4.73;2.40;;;5.30;99.90;;;;;;4898089;29;20303;-72
2023/01/27 21:38:44;;;;;;;5.43;2.30;;;5.30;99.90;;;;;;4897830;29;20226;-72
2023/01/27 21:45:10;;;;;;;3.53;2.03;;;5.40;99.90;;;;;;4897962;29;20573;-72
2023/01/27 21:46:47;;;;;;;4.30;2.53;;;5.30;99.90;;;;;;4897350;29;20224;-72
2023/01/27 21:49:14;;;;;;;3.50;2.27;;;5.40;99.90;;;;;;4897800;29;20234;-72
2023/01/27 21:51:42;;;;;;;4.70;2.60;;;5.50;99.90;;;;;;4897692;29;20238;-72
2023/01/27 21:54:08;;;;;;;4.53;2.37;;;5.50;99.90;;;;;;4897890;29;20214;-72
2023/01/27 21:56:35;;;;;;;6.73;2.63;;;5.60;99.90;;;;;;4897513;29;20210;-72
2023/01/27 21:59:03;;;;;;;6.07;2.63;;;5.70;99.90;;;;;;4897465;29;20236;-72
